Time;durP1;ratioP1;P1;durP2;ratioP2;P2;SDS_P1;SDS_P2;PMS_P1;PMS_P2;Temp;Humidity;BMP_temperature;BMP_pressure;BME280_temperature;BME280_humidity;BME280_pressure;Samples;Min_cycle;Max_cycle;Signal;HPM_P1;HPM_P2
2023/06/15 00:01:32;;;;;;;;;11.20;11.20;;;;;20.41;44.83;99094.88;5060945;28;8978;-79
2023/06/15 00:04:01;;;;;;;;;15.00;12.60;;;;;20.44;44.81;99100.03;5033487;28;8884;-81
2023/06/15 00:06:30;;;;;;;;;12.20;11.80;;;;;20.42;44.12;99095.72;5066709;28;8876;-80
2023/06/15 00:08:59;;;;;;;;;12.80;11.80;;;;;20.33;44.91;99093.69;5033859;28;8847;-83
2023/06/15 00:11:28;;;;;;;;;10.60;10.60;;;;;20.27;45.41;99093.19;5017947;28;8978;-81
2023/06/15 00:13:57;;;;;;;;;8.40;8.00;;;;;20.31;45.17;99095.63;5067056;28;8988;-80
2023/06/15 00:16:30;;;;;;;;;15.00;14.20;;;;;20.23;45.74;99090.81;5016266;28;8868;-80
2023/06/15 00:19:01;;;;;;;;;15.00;15.00;;;;;20.32;46.82;99087.50;5066925;28;8855;-82
2023/06/15 00:21:33;;;;;;;;;13.40;13.20;;;;;20.37;47.01;99088.06;5010773;28;8860;-81
2023/06/15 00:24:03;;;;;;;;;16.20;15.40;;;;;20.33;46.04;99086.56;5027519;28;8882;-82
2023/06/15 00:26:32;;;;;;;;;13.60;12.80;;;;;20.29;45.13;99082.38;4994518;28;8890;-83
2023/06/15 00:29:01;;;;;;;;;14.00;13.80;;;;;20.28;45.45;99081.53;4994782;28;8852;-82
2023/06/15 00:31:31;;;;;;;;;15.20;15.20;;;;;20.31;45.90;99080.44;5042115;28;8864;-81
2023/06/15 00:34:00;;;;;;;;;16.20;15.00;;;;;20.34;45.76;99082.91;5047012;28;8850;-83
2023/06/15 00:36:29;;;;;;;;;13.00;13.00;;;;;20.37;47.53;99084.50;5029608;28;9620;-82
2023/06/15 00:38:59;;;;;;;;;15.40;15.40;;;;;20.41;46.77;99073.53;5038832;28;8884;-81
2023/06/15 00:41:28;;;;;;;;;12.60;12.40;;;;;20.41;46.97;99070.84;5020489;28;8858;-80
2023/06/15 00:43:57;;;;;;;;;15.40;12.80;;;;;20.42;46.81;99071.69;5063880;28;9600;-82
2023/06/15 00:46:26;;;;;;;;;13.20;13.20;;;;;20.45;46.40;99063.50;5045793;28;9009;-79
2023/06/15 00:48:56;;;;;;;;;15.20;14.40;;;;;20.44;47.14;99065.31;5030097;28;8888;-81
2023/06/15 00:51:25;;;;;;;;;15.00;13.60;;;;;20.46;46.33;99060.72;5046065;28;8917;-80
2023/06/15 00:53:54;;;;;;;;;16.00;15.00;;;;;20.47;46.96;99059.75;5063760;28;8897;-82
2023/06/15 00:56:23;;;;;;;;;15.20;14.60;;;;;20.52;48.20;99063.91;5085582;28;8942;-79
2023/06/15 00:58:52;;;;;;;;;16.20;15.80;;;;;20.48;46.19;99056.13;5036848;28;8854;-80
2023/06/15 01:01:21;;;;;;;;;16.20;15.20;;;;;20.46;47.08;99060.72;5070886;28;8872;-81
2023/06/15 01:03:51;;;;;;;;;17.60;17.60;;;;;20.38;46.62;99056.88;5102112;28;8933;-81
2023/06/15 01:06:24;;;;;;;;;17.40;17.00;;;;;19.60;47.36;99058.53;5070555;28;8866;-82
2023/06/15 01:08:59;;;;;;;;;20.40;18.60;;;;;19.28;48.46;99055.28;5102144;28;9618;-82
2023/06/15 01:11:28;;;;;;;;;15.60;15.00;;;;;19.00;47.27;99049.06;5068112;28;8975;-83
2023/06/15 01:14:00;;;;;;;;;20.00;18.80;;;;;18.64;49.00;99053.06;5068947;28;8869;-84
2023/06/15 01:16:38;;;;;;;;;21.00;19.60;;;;;18.92;49.03;99052.22;5053584;28;8854;-83
2023/06/15 01:19:29;;;;;;;;;18.20;18.20;;;;;19.36;48.94;99049.44;5051467;28;8854;-82
2023/06/15 01:22:08;;;;;;;;;20.00;18.40;;;;;19.47;48.78;99049.59;5069746;28;8946;-82
2023/06/15 01:24:41;;;;;;;;;14.40;13.80;;;;;19.68;48.83;99047.34;5070904;28;9651;-80
2023/06/15 01:27:13;;;;;;;;;19.00;16.60;;;;;19.84;48.26;99044.50;5083246;28;8903;-82
2023/06/15 01:29:43;;;;;;;;;22.40;18.60;;;;;19.94;48.28;99039.41;5068084;28;8862;-83
2023/06/15 01:32:12;;;;;;;;;17.20;17.20;;;;;20.10;46.73;99024.91;5104768;27;8866;-82
2023/06/15 01:34:41;;;;;;;;;20.40;17.80;;;;;19.71;48.33;99036.47;5069204;28;8935;-82
2023/06/15 01:37:10;;;;;;;;;18.00;17.60;;;;;19.74;46.99;99036.25;5068801;28;9723;-81
2023/06/15 01:39:42;;;;;;;;;22.60;20.40;;;;;19.27;48.32;99029.56;5068483;28;8860;-83
2023/06/15 01:42:12;;;;;;;;;22.00;20.80;;;;;19.07;48.52;99026.41;5082171;28;8856;-82
2023/06/15 01:44:42;;;;;;;;;17.00;17.00;;;;;18.36;50.72;99027.28;5065417;28;8852;-83
2023/06/15 01:47:12;;;;;;;;;24.20;22.40;;;;;18.01;51.40;99026.78;5081139;28;9194;-83
2023/06/15 01:49:42;;;;;;;;;25.20;21.80;;;;;17.94;51.81;99029.78;5016103;28;8856;-83
2023/06/15 01:52:10;;;;;;;;;23.60;21.20;;;;;18.01;52.02;99027.63;5080813;28;8894;-81
2023/06/15 01:54:39;;;;;;;;;18.60;18.20;;;;;18.15;52.01;99018.81;5065244;28;8879;-82
2023/06/15 01:57:08;;;;;;;;;19.80;19.20;;;;;18.52;51.00;99021.91;5025529;28;8855;-83
2023/06/15 01:59:39;;;;;;;;;20.60;19.60;;;;;18.80;50.95;99013.06;5008974;28;8972;-83
2023/06/15 02:02:07;;;;;;;;;14.40;13.80;;;;;19.08;50.36;99019.25;5023487;28;8871;-82
2023/06/15 02:04:37;;;;;;;;;20.60;20.40;;;;;19.32;50.17;99019.47;5007945;28;9665;-82
2023/06/15 02:07:06;;;;;;;;;19.20;19.20;;;;;19.48;49.61;99017.50;5007734;28;8863;-81
2023/06/15 02:09:35;;;;;;;;;19.00;18.60;;;;;19.55;48.15;99006.47;5008087;28;8867;-82
2023/06/15 02:12:04;;;;;;;;;20.40;19.20;;;;;19.69;48.67;99017.06;4992475;28;8851;-82
2023/06/15 02:14:33;;;;;;;;;16.20;15.80;;;;;19.80;48.66;99014.53;4960851;28;8935;-82
2023/06/15 02:17:03;;;;;;;;;20.60;19.20;;;;;19.94;48.76;99020.75;5024274;28;8858;-84
2023/06/15 02:19:32;;;;;;;;;16.80;13.00;;;;;19.89;47.99;99023.69;5061708;28;8838;-83
2023/06/15 02:22:01;;;;;;;;;17.60;16.20;;;;;19.96;47.22;99021.47;5033813;28;8848;-82
2023/06/15 02:24:30;;;;;;;;;16.40;15.60;;;;;20.04;47.37;99025.31;5024280;28;8891;-83
2023/06/15 02:27:00;;;;;;;;;18.60;17.40;;;;;20.07;47.05;99029.59;5041707;28;10177;-82
2023/06/15 02:29:29;;;;;;;;;10.60;8.60;;;;;20.13;46.83;99026.50;4976067;28;8845;-81
2023/06/15 02:31:57;;;;;;;;;15.40;14.40;;;;;20.18;46.88;99043.06;5043710;28;8856;-83
2023/06/15 02:34:28;;;;;;;;;13.20;11.20;;;;;20.23;46.09;99037.44;5025796;28;8870;-82
2023/06/15 02:36:58;;;;;;;;;14.60;14.20;;;;;20.29;45.97;99035.19;5082951;28;8877;-82
2023/06/15 02:39:27;;;;;;;;;12.40;12.40;;;;;20.34;46.21;99039.38;5100006;28;9631;-82
2023/06/15 02:41:56;;;;;;;;;12.60;11.20;;;;;20.40;46.57;99038.91;5099966;28;8919;-81
2023/06/15 02:44:25;;;;;;;;;16.80;16.20;;;;;20.38;47.34;99041.69;5068804;28;8838;-82
2023/06/15 02:46:54;;;;;;;;;17.80;16.80;;;;;20.43;48.44;99042.22;5087969;28;8924;-82
2023/06/15 02:49:23;;;;;;;;;17.80;17.60;;;;;20.39;47.59;99037.22;5070069;28;9539;-83
2023/06/15 02:51:54;;;;;;;;;18.60;18.20;;;;;20.24;47.76;99044.50;5083502;28;8870;-81
2023/06/15 02:54:23;;;;;;;;;17.60;16.60;;;;;19.99;48.78;99040.81;5099913;28;8877;-82
2023/06/15 02:56:53;;;;;;;;;21.00;20.20;;;;;19.80;50.29;99033.19;5066326;28;9639;-82
2023/06/15 02:59:26;;;;;;;;;21.60;21.00;;;;;19.79;50.45;99034.16;5066026;28;8879;-82
2023/06/15 03:02:04;;;;;;;;;20.60;19.40;;;;;19.85;50.54;99032.88;5062264;28;8917;-82
2023/06/15 03:04:44;;;;;;;;;20.60;20.00;;;;;19.96;50.40;99037.50;5102547;28;8867;-82
2023/06/15 03:07:22;;;;;;;;;20.20;19.20;;;;;20.05;50.31;99035.03;5085494;28;8856;-81
2023/06/15 03:10:12;;;;;;;;;19.80;18.80;;;;;20.16;49.85;99039.66;5085533;28;8870;-82
2023/06/15 03:12:45;;;;;;;;;21.00;20.40;;;;;20.21;48.96;99029.50;5127874;28;8902;-82
2023/06/15 03:15:14;;;;;;;;;21.60;19.60;;;;;20.28;48.63;99036.16;5093269;28;8874;-82
2023/06/15 03:17:44;;;;;;;;;17.80;17.20;;;;;20.33;48.11;99034.97;5055345;28;8861;-82
2023/06/15 03:20:16;;;;;;;;;17.00;16.00;;;;;20.39;48.31;99035.41;5032637;28;8877;-82
2023/06/15 03:22:48;;;;;;;;;73.67;61.67;;;;;20.41;48.66;99037.97;5000362;28;8877;-82
2023/06/15 03:25:17;;;;;;;;;72.33;58.00;;;;;20.13;49.83;99042.53;5020786;28;9330;-73
2023/06/15 03:27:48;;;;;;;;;29.60;27.80;;;;;19.88;51.50;99036.19;5047499;28;9232;-75
2023/06/15 03:30:20;;;;;;;;;21.20;19.80;;;;;19.60;52.20;99045.19;5048393;28;8996;-72
2023/06/15 03:32:49;;;;;;;;;19.60;18.60;;;;;19.77;51.91;99040.56;5048572;28;8873;-74
2023/06/15 03:35:18;;;;;;;;;18.60;18.00;;;;;19.90;50.79;99036.09;4997549;28;8870;-74
2023/06/15 03:37:48;;;;;;;;;18.00;18.00;;;;;19.96;49.50;99038.34;5030364;28;9016;-74
2023/06/15 03:40:18;;;;;;;;;16.80;16.20;;;;;20.08;49.60;99040.19;5046964;28;8830;-74
2023/06/15 03:42:46;;;;;;;;;17.00;16.00;;;;;20.17;48.82;99046.69;5046605;28;8862;-73
2023/06/15 03:45:17;;;;;;;;;19.60;17.60;;;;;20.26;48.61;99045.22;5063730;28;8974;-75
2023/06/15 03:47:48;;;;;;;;;19.60;18.80;;;;;20.34;47.84;99044.69;5013936;28;8899;-73
2023/06/15 03:50:17;;;;;;;;;20.00;18.20;;;;;20.40;47.42;99045.09;5024766;28;8858;-75
2023/06/15 03:52:46;;;;;;;;;18.60;18.60;;;;;20.46;47.21;99050.03;5102039;28;8886;-74
2023/06/15 03:55:16;;;;;;;;;16.80;15.80;;;;;20.50;46.92;99050.69;5083678;28;8965;-73
2023/06/15 03:57:46;;;;;;;;;23.60;19.20;;;;;20.57;46.36;99053.75;5050598;28;8870;-74
2023/06/15 04:00:16;;;;;;;;;16.00;16.00;;;;;20.63;46.34;99059.53;5051524;28;8889;-74
2023/06/15 04:02:48;;;;;;;;;22.20;20.80;;;;;20.70;45.69;99059.09;5069679;28;8984;-73
2023/06/15 04:05:19;;;;;;;;;16.80;15.40;;;;;20.75;45.77;99052.47;5069272;28;8877;-74
2023/06/15 04:07:48;;;;;;;;;49.25;41.00;;;;;20.80;45.83;99057.47;5067757;28;8904;-74
2023/06/15 04:10:18;;;;;;;;;69.00;54.25;;;;;20.82;44.81;99059.06;5067744;28;9719;-74
2023/06/15 04:12:47;;;;;;;;;31.00;30.00;;;;;20.85;45.08;99053.50;5017572;28;8897;-75
2023/06/15 04:15:16;;;;;;;;;23.60;22.20;;;;;20.89;44.93;99059.47;5067741;28;8842;-74
2023/06/15 04:17:48;;;;;;;;;22.20;20.20;;;;;20.94;44.27;99056.53;5069496;28;8939;-75
2023/06/15 04:20:17;;;;;;;;;17.40;16.00;;;;;20.98;44.41;99055.34;5084504;28;8877;-75
2023/06/15 04:22:49;;;;;;;;;12.40;12.40;;;;;21.02;44.10;99055.00;5067836;28;8870;-73
2023/06/15 04:25:20;;;;;;;;;18.00;17.60;;;;;21.04;44.61;99045.03;5100565;28;8859;-74
2023/06/15 04:27:50;;;;;;;;;27.40;26.60;;;;;21.06;44.01;99052.94;5067079;28;8920;-76
2023/06/15 04:30:24;;;;;;;;;19.60;19.60;;;;;21.09;44.02;99050.06;5084606;28;9620;-75
2023/06/15 04:32:59;;;;;;;;;37.20;32.60;;;;;21.13;43.68;99053.38;5045766;28;8870;-75
2023/06/15 04:35:34;;;;;;;;;18.00;15.20;;;;;21.09;43.44;99058.09;5028568;28;8947;-74
2023/06/15 04:38:05;;;;;;;;;15.40;15.40;;;;;21.03;43.47;99059.38;5062806;28;8951;-74
2023/06/15 04:40:37;;;;;;;;;16.20;16.20;;;;;21.02;43.90;99063.00;5065282;28;8847;-76
2023/06/15 04:43:06;;;;;;;;;14.40;14.40;;;;;21.05;43.80;99057.44;5065699;28;8883;-76
2023/06/15 04:45:35;;;;;;;;;42.50;36.50;;;;;21.11;44.25;99057.97;5014320;28;8872;-74
2023/06/15 04:48:05;;;;;;;;;70.33;55.67;;;;;21.15;44.50;99064.81;5048857;28;8843;-75
2023/06/15 04:50:35;;;;;;;;;37.20;31.60;;;;;21.20;44.04;99065.28;5048531;28;8949;-76
2023/06/15 04:53:04;;;;;;;;;21.00;20.60;;;;;21.24;43.90;99069.47;5065343;28;8925;-76
2023/06/15 04:55:32;;;;;;;;;18.20;17.20;;;;;21.25;43.78;99072.00;5031323;28;8850;-76
2023/06/15 04:58:04;;;;;;;;;15.80;15.80;;;;;21.28;43.59;99073.63;5048833;28;8961;-75
2023/06/15 05:00:33;;;;;;;;;20.40;20.00;;;;;21.32;43.63;99067.09;5046000;28;8865;-67
2023/06/15 05:03:04;;;;;;;;;19.00;15.80;;;;;21.39;43.63;99065.69;5030323;28;8869;-69
2023/06/15 05:05:33;;;;;;;;;16.20;15.80;;;;;21.36;42.29;99078.41;5052937;28;8840;-68
2023/06/15 05:08:02;;;;;;;;;15.20;15.20;;;;;21.37;42.54;99075.63;5085641;28;8868;-68
2023/06/15 05:10:32;;;;;;;;;19.00;18.60;;;;;21.43;42.40;99067.16;5068793;28;8878;-68
2023/06/15 05:13:17;;;;;;;;;20.60;18.80;;;;;21.38;42.24;99073.81;5071315;28;8838;-69
2023/06/15 05:15:46;;;;;;;;;22.60;22.00;;;;;21.44;42.09;99074.19;5052349;28;8846;-67
2023/06/15 05:18:17;;;;;;;;;21.20;17.40;;;;;21.53;42.18;99071.81;5120929;27;8878;-70
2023/06/15 05:20:47;;;;;;;;;15.60;14.20;;;;;21.61;42.02;99081.00;5121402;27;8948;-68
2023/06/15 05:23:18;;;;;;;;;16.60;16.60;;;;;21.67;42.23;99077.00;5069922;28;8981;-69
2023/06/15 05:25:48;;;;;;;;;15.60;15.20;;;;;21.77;42.02;99077.19;5066385;28;8854;-70
2023/06/15 05:28:19;;;;;;;;;19.80;17.40;;;;;21.91;41.93;99084.19;5049865;28;8874;-68
2023/06/15 05:30:48;;;;;;;;;17.00;14.60;;;;;22.00;41.82;99088.84;5068938;28;8846;-66
2023/06/15 05:33:17;;;;;;;;;19.60;17.00;;;;;22.07;41.37;99087.41;5088113;28;8855;-68
2023/06/15 05:35:47;;;;;;;;;19.60;19.00;;;;;22.12;41.51;99092.38;5086153;28;8859;-69
2023/06/15 05:38:15;;;;;;;;;17.60;17.60;;;;;22.18;41.77;99094.59;5075457;28;8894;-69
2023/06/15 05:40:45;;;;;;;;;18.80;18.80;;;;;22.13;41.71;99099.47;5086337;28;8850;-70
2023/06/15 05:43:13;;;;;;;;;23.00;19.20;;;;;22.18;41.79;99098.13;5085968;28;8835;-76
2023/06/15 05:45:44;;;;;;;;;17.20;16.20;;;;;22.26;41.92;99104.75;5042406;28;8842;-72
2023/06/15 05:48:14;;;;;;;;;21.40;18.00;;;;;22.29;41.85;99104.50;5028189;28;8862;-74
2023/06/15 05:50:43;;;;;;;;;19.40;18.80;;;;;22.34;41.75;99105.03;4996280;28;8917;-74
2023/06/15 05:53:12;;;;;;;;;18.00;18.00;;;;;22.27;42.21;99104.63;5028073;28;8920;-75
2023/06/15 05:55:41;;;;;;;;;15.00;15.00;;;;;22.35;41.94;99110.25;5022684;28;8912;-74
2023/06/15 05:58:10;;;;;;;;;20.60;16.20;;;;;22.46;41.97;99109.41;5054108;28;8858;-73
2023/06/15 06:00:40;;;;;;;;;18.60;18.40;;;;;22.51;42.58;99111.75;5025670;28;8896;-75
2023/06/15 06:03:10;;;;;;;;;18.80;17.60;;;;;22.38;42.92;99107.31;5024010;28;8945;-74
2023/06/15 06:05:44;;;;;;;;;18.20;17.40;;;;;22.44;42.81;99111.34;5040749;28;8992;-74
2023/06/15 06:08:13;;;;;;;;;20.00;19.20;;;;;22.36;43.26;99106.59;5060297;28;8847;-74
2023/06/15 06:10:43;;;;;;;;;15.40;15.40;;;;;22.50;43.32;99102.84;5027657;28;8869;-75
2023/06/15 06:13:26;;;;;;;;;18.80;18.80;;;;;22.69;43.46;99101.41;5062103;28;8980;-74
2023/06/15 06:15:55;;;;;;;;;19.40;16.00;;;;;22.77;43.35;99099.84;5027375;28;8877;-73
2023/06/15 06:18:26;;;;;;;;;19.00;17.40;;;;;22.94;43.02;99098.53;5027366;28;8846;-73
2023/06/15 06:20:56;;;;;;;;;15.40;14.60;;;;;22.85;43.22;99101.91;5027065;28;8866;-72
2023/06/15 06:23:26;;;;;;;;;14.60;13.20;;;;;22.97;43.11;99103.63;5062128;28;8908;-74
2023/06/15 06:25:57;;;;;;;;;16.20;13.80;;;;;22.75;43.60;99108.94;5065333;28;9064;-73
2023/06/15 06:28:26;;;;;;;;;13.00;12.00;;;;;22.77;43.68;99099.84;5048232;28;8889;-73
2023/06/15 06:30:55;;;;;;;;;13.60;13.60;;;;;22.97;43.19;99105.47;5066829;28;8881;-73
2023/06/15 06:33:24;;;;;;;;;17.00;16.20;;;;;22.93;43.43;99109.38;5073983;28;8871;-72
2023/06/15 06:35:54;;;;;;;;;13.60;12.20;;;;;23.00;43.32;99106.06;5082243;28;9583;-74
2023/06/15 06:38:23;;;;;;;;;10.20;9.40;;;;;22.89;43.37;99107.91;5071107;28;8897;-73
2023/06/15 06:40:52;;;;;;;;;16.20;15.40;;;;;22.91;43.54;99106.81;5106594;27;8869;-74
2023/06/15 06:43:21;;;;;;;;;17.20;16.60;;;;;22.82;43.65;99112.84;5047615;28;8878;-73
2023/06/15 06:45:50;;;;;;;;;13.60;13.60;;;;;22.92;43.34;99100.47;5082005;28;8847;-74
2023/06/15 06:48:19;;;;;;;;;16.00;15.00;;;;;22.67;43.83;99103.34;5066986;28;9755;-71
2023/06/15 06:50:48;;;;;;;;;15.60;14.20;;;;;22.83;43.73;99113.69;5066166;28;8923;-73
2023/06/15 06:53:18;;;;;;;;;12.60;11.40;;;;;23.02;43.45;99102.44;5080421;28;8990;-72
2023/06/15 06:55:48;;;;;;;;;15.80;15.80;;;;;22.85;44.23;99112.63;5066808;28;8882;-75
2023/06/15 06:58:16;;;;;;;;;15.00;14.20;;;;;23.04;43.83;99108.53;5082261;28;8869;-74
2023/06/15 07:00:45;;;;;;;;;15.00;15.00;;;;;23.04;43.57;99112.03;5068666;28;8854;-72
2023/06/15 07:03:14;;;;;;;;;18.60;16.40;;;;;23.27;43.15;99120.91;5081931;28;8850;-73
2023/06/15 07:05:43;;;;;;;;;16.40;16.00;;;;;23.40;43.07;99112.72;5065471;28;8847;-74
2023/06/15 07:08:12;;;;;;;;;17.80;16.20;;;;;23.49;42.97;99114.66;5073015;28;8844;-72
2023/06/15 07:10:43;;;;;;;;;14.40;14.20;;;;;23.61;42.74;99110.16;5083125;28;8869;-72
2023/06/15 07:13:11;;;;;;;;;11.00;10.20;;;;;23.43;42.99;99112.50;5074555;28;8867;-72
2023/06/15 07:15:40;;;;;;;;;12.20;12.20;;;;;23.43;42.81;99112.50;5084901;28;8974;-73
2023/06/15 07:18:13;;;;;;;;;14.00;13.00;;;;;23.20;44.13;99114.34;5071081;28;8890;-72
2023/06/15 07:20:43;;;;;;;;;13.80;12.80;;;;;23.46;43.39;99108.69;5066340;28;8853;-72
2023/06/15 07:23:12;;;;;;;;;12.60;12.60;;;;;23.34;44.04;99113.22;5080259;28;8843;-72
2023/06/15 07:25:40;;;;;;;;;15.60;15.20;;;;;23.71;43.74;99110.22;5047304;28;8863;-73
2023/06/15 07:28:11;;;;;;;;;17.60;15.00;;;;;23.66;43.32;99109.75;5066948;28;8854;-73
2023/06/15 07:30:40;;;;;;;;;14.40;14.40;;;;;23.57;43.36;99114.06;5066459;28;8942;-72
2023/06/15 07:33:09;;;;;;;;;15.20;14.20;;;;;23.35;44.36;99121.13;5070538;28;8866;-72
2023/06/15 07:35:38;;;;;;;;;14.40;14.40;;;;;23.17;44.54;99111.91;5075203;28;8842;-73
2023/06/15 07:38:07;;;;;;;;;16.60;16.00;;;;;23.38;44.22;99107.47;5067190;28;8866;-73
2023/06/15 07:40:38;;;;;;;;;13.40;13.40;;;;;23.52;43.79;99108.22;5098835;28;8846;-74
2023/06/15 07:43:07;;;;;;;;;15.80;14.20;;;;;23.57;43.70;99103.34;5067334;28;8878;-72
2023/06/15 07:45:38;;;;;;;;;19.00;18.20;;;;;23.75;43.37;99106.31;5066656;28;8873;-73
2023/06/15 07:48:07;;;;;;;;;16.00;15.40;;;;;23.96;43.28;99106.34;5064164;28;8850;-72
2023/06/15 07:50:37;;;;;;;;;17.40;16.80;;;;;23.95;42.92;99101.97;5066669;28;8869;-74
2023/06/15 07:53:06;;;;;;;;;14.80;14.20;;;;;23.72;43.33;99104.75;5066566;28;8890;-76
2023/06/15 07:55:35;;;;;;;;;15.40;15.20;;;;;23.66;43.70;99107.06;5066200;28;8901;-74
2023/06/15 07:58:04;;;;;;;;;17.60;17.60;;;;;23.70;43.78;99101.34;5081851;28;8858;-73
2023/06/15 08:00:33;;;;;;;;;14.60;14.60;;;;;24.01;42.79;99105.97;5066164;28;8846;-73
2023/06/15 08:03:03;;;;;;;;;15.20;14.80;;;;;24.14;42.63;99099.44;5069578;28;8873;-73
2023/06/15 08:05:32;;;;;;;;;12.20;12.20;;;;;23.95;43.09;99102.81;5102371;28;8839;-72
2023/06/15 08:08:01;;;;;;;;;15.00;14.80;;;;;23.95;42.97;99101.97;5069712;28;9695;-74
2023/06/15 08:10:31;;;;;;;;;15.80;15.00;;;;;24.23;42.60;99102.34;5069638;28;8874;-74
2023/06/15 08:13:00;;;;;;;;;17.60;17.00;;;;;24.29;42.67;99105.34;5070367;28;8866;-73
2023/06/15 08:15:30;;;;;;;;;20.20;18.80;;;;;24.55;41.99;99095.06;5067247;28;8885;-74
2023/06/15 08:17:59;;;;;;;;;19.20;19.20;;;;;24.43;42.46;99097.94;5070221;28;8847;-76
2023/06/15 08:20:30;;;;;;;;;16.80;16.00;;;;;24.57;42.12;99102.16;5063704;28;8949;-73
2023/06/15 08:22:59;;;;;;;;;18.40;16.40;;;;;24.86;41.17;99096.94;5070380;28;8846;-73
2023/06/15 08:25:28;;;;;;;;;16.40;15.40;;;;;24.96;41.47;99102.34;5070014;28;8867;-74
2023/06/15 08:27:57;;;;;;;;;17.80;17.80;;;;;25.03;41.13;99101.66;5084726;28;8947;-73
2023/06/15 08:30:26;;;;;;;;;18.80;18.80;;;;;25.17;40.82;99105.81;5069864;28;8854;-73
2023/06/15 08:32:54;;;;;;;;;19.00;18.20;;;;;25.23;40.18;99093.66;5069762;28;8855;-74
2023/06/15 08:35:24;;;;;;;;;14.60;13.20;;;;;25.30;40.16;99103.75;5070028;28;8850;-74
2023/06/15 08:37:55;;;;;;;;;17.00;17.00;;;;;25.21;40.19;99107.25;5074413;28;8989;-74
2023/06/15 08:40:24;;;;;;;;;13.80;13.80;;;;;25.27;40.00;99097.78;5069605;28;8834;-74
2023/06/15 08:42:54;;;;;;;;;16.00;15.00;;;;;25.39;40.22;99098.53;5070033;28;8834;-74
2023/06/15 08:45:27;;;;;;;;;18.00;18.00;;;;;25.53;40.13;99095.47;5070224;28;8886;-72
2023/06/15 08:47:58;;;;;;;;;16.40;16.40;;;;;25.79;39.73;99097.59;5067614;28;8854;-75
2023/06/15 08:50:27;;;;;;;;;17.80;17.80;;;;;25.92;38.89;99100.03;5069853;28;8874;-74
2023/06/15 08:52:59;;;;;;;;;16.80;16.60;;;;;25.98;38.12;99092.22;5050567;28;8854;-72
2023/06/15 08:55:29;;;;;;;;;16.40;15.80;;;;;26.12;38.79;99093.66;5068390;28;8847;-73
2023/06/15 08:57:59;;;;;;;;;16.20;13.80;;;;;26.19;37.83;99096.59;5067935;28;8846;-74
2023/06/15 09:00:29;;;;;;;;;15.60;15.60;;;;;25.98;37.85;99097.59;5069400;28;8846;-73
2023/06/15 09:03:01;;;;;;;;;14.80;13.80;;;;;26.12;37.61;99090.13;5069438;28;8969;-71
2023/06/15 09:05:30;;;;;;;;;6.80;6.40;;;;;26.42;36.95;99084.53;5069299;28;8947;-74
2023/06/15 09:08:01;;;;;;;;;12.80;11.80;;;;;26.54;36.20;99081.69;5068929;28;8839;-75
2023/06/15 09:10:31;;;;;;;;;12.60;12.60;;;;;26.43;36.06;99086.19;5067961;28;8893;-75
2023/06/15 09:13:00;;;;;;;;;15.00;15.00;;;;;26.52;35.66;99071.03;5100347;28;8850;-74
2023/06/15 09:15:30;;;;;;;;;11.60;11.40;;;;;26.60;35.91;99075.69;5101439;28;8843;-74
2023/06/15 09:18:02;;;;;;;;;12.00;11.40;;;;;26.82;35.49;99071.78;5069056;28;8900;-75
2023/06/15 09:20:37;;;;;;;;;12.20;12.20;;;;;26.70;35.75;99075.66;5069451;28;10062;-72
2023/06/15 09:23:11;;;;;;;;;14.00;13.00;;;;;26.91;35.13;99076.28;5067655;28;8988;-74
2023/06/15 09:25:48;;;;;;;;;13.00;12.20;;;;;26.91;35.31;99078.13;5082978;28;9058;-73
2023/06/15 09:28:17;;;;;;;;;18.60;16.00;;;;;26.70;35.78;99071.09;5083034;28;8966;-72
2023/06/15 09:30:53;;;;;;;;;17.60;17.00;;;;;26.73;36.16;99070.81;5067152;28;8858;-73
2023/06/15 09:33:22;;;;;;;;;14.60;14.60;;;;;26.71;35.78;99067.44;5031530;28;9604;-74
2023/06/15 09:35:59;;;;;;;;;11.00;11.00;;;;;26.84;35.59;99062.53;5082433;28;8855;-73
2023/06/15 09:38:32;;;;;;;;;12.80;12.40;;;;;26.96;35.34;99060.50;5048802;28;8842;-73
2023/06/15 09:41:05;;;;;;;;;12.20;11.80;;;;;27.14;35.07;99065.97;5068112;28;8850;-74
2023/06/15 09:43:35;;;;;;;;;14.40;13.20;;;;;27.21;35.11;99058.13;5066504;28;8877;-74
2023/06/15 09:46:10;;;;;;;;;13.40;12.20;;;;;27.09;35.03;99057.47;5066522;28;8962;-73
2023/06/15 09:48:39;;;;;;;;;13.00;12.00;;;;;26.76;35.17;99058.88;5067802;28;8858;-73
2023/06/15 09:51:08;;;;;;;;;12.80;12.80;;;;;27.11;35.18;99050.09;5067525;28;8858;-73
2023/06/15 09:53:39;;;;;;;;;11.40;11.00;;;;;27.04;34.80;99049.84;5067952;28;8876;-72
2023/06/15 09:56:10;;;;;;;;;10.20;9.80;;;;;27.22;34.65;99052.56;5067992;28;8839;-74
2023/06/15 09:58:59;;;;;;;;;14.80;14.80;;;;;27.25;34.67;99046.88;5067959;28;8862;-72
2023/06/15 10:01:33;;;;;;;;;12.40;12.20;;;;;26.97;35.08;99050.56;5067712;28;8847;-74
2023/06/15 10:04:03;;;;;;;;;11.80;11.80;;;;;27.05;34.97;99054.22;5032151;28;8869;-71
2023/06/15 10:06:34;;;;;;;;;13.00;13.00;;;;;26.85;35.08;99050.78;5067150;28;8842;-73
2023/06/15 10:09:07;;;;;;;;;12.40;12.40;;;;;27.17;35.00;99043.22;5082336;28;9112;-74
2023/06/15 10:11:40;;;;;;;;;14.80;14.20;;;;;27.30;35.17;99051.81;5064741;28;8844;-73
2023/06/15 10:14:15;;;;;;;;;15.20;15.20;;;;;27.22;35.14;99049.03;5064345;28;8944;-74
2023/06/15 10:16:50;;;;;;;;;17.80;15.40;;;;;27.23;34.76;99048.00;5064544;28;9563;-74
2023/06/15 10:19:23;;;;;;;;;15.00;15.00;;;;;27.30;35.00;99048.28;5064545;28;8844;-75
2023/06/15 10:21:53;;;;;;;;;18.20;17.60;;;;;26.98;36.87;99038.78;5074130;28;8868;-80
2023/06/15 10:24:26;;;;;;;;;19.80;19.20;;;;;26.96;36.96;99047.00;5077303;28;8856;-81
2023/06/15 10:26:56;;;;;;;;;16.40;14.80;;;;;26.73;37.40;99051.09;5052377;28;8903;-82
2023/06/15 10:29:36;;;;;;;;;10.00;10.00;;;;;26.80;36.87;99049.53;5044676;28;8868;-82
2023/06/15 10:32:13;;;;;;;;;21.40;20.80;;;;;26.26;37.44;99046.53;5071683;28;8844;-83
2023/06/15 10:34:49;;;;;;;;;13.40;13.40;;;;;25.95;37.51;99041.38;5042534;28;8866;-81
2023/06/15 10:37:27;;;;;;;;;12.60;12.60;;;;;25.61;37.81;99039.06;5027251;28;8860;-80
2023/06/15 10:40:06;;;;;;;;;12.80;12.80;;;;;25.37;38.42;99041.31;5071716;28;8844;-82
2023/06/15 10:42:44;;;;;;;;;13.00;11.60;;;;;25.22;38.78;99048.91;5067644;28;8846;-82
2023/06/15 10:45:29;;;;;;;;;13.80;13.40;;;;;25.22;38.92;99048.91;5069341;28;8854;-84
2023/06/15 10:48:00;;;;;;;;;7.80;7.80;;;;;25.02;39.94;99043.50;5070549;28;8827;-84
2023/06/15 10:50:38;;;;;;;;;13.80;13.80;;;;;24.85;40.83;99047.69;5097471;28;8855;-85
2023/06/15 10:53:24;;;;;;;;;16.40;16.40;;;;;24.88;40.96;99041.19;5093769;28;8878;-80
2023/06/15 10:55:56;;;;;;;;;16.00;15.00;;;;;24.89;40.66;99045.59;5067721;28;8855;-82
2023/06/15 10:58:29;;;;;;;;;15.80;15.80;;;;;24.89;41.05;99045.59;5101946;28;8843;-80
2023/06/15 11:01:07;;;;;;;;;15.80;15.20;;;;;24.69;41.73;99044.63;5084486;28;8854;-80
2023/06/15 11:03:40;;;;;;;;;17.60;16.60;;;;;24.86;41.56;99040.47;5070033;28;8935;-83
2023/06/15 11:06:15;;;;;;;;;17.00;15.80;;;;;24.85;41.48;99036.06;5083922;28;8954;-81
2023/06/15 11:08:50;;;;;;;;;17.60;17.00;;;;;24.64;41.64;99030.72;5083959;28;8846;-83
2023/06/15 11:11:22;;;;;;;;;18.20;17.60;;;;;24.71;41.65;99030.03;5066378;28;8844;-83
2023/06/15 11:13:56;;;;;;;;;19.20;17.80;;;;;24.56;41.88;99023.34;5050025;28;8948;-80
2023/06/15 11:16:27;;;;;;;;;17.40;16.80;;;;;24.33;42.57;99028.03;5033657;28;8856;-83
2023/06/15 11:19:24;;;;;;;;;17.20;16.80;;;;;24.47;42.13;99032.22;5054311;28;8986;-80
2023/06/15 11:22:00;;;;;;;;;14.80;14.20;;;;;24.35;42.18;99032.28;5052912;28;8972;-82
2023/06/15 11:24:36;;;;;;;;;15.20;14.60;;;;;24.25;42.93;99022.50;5067143;28;8853;-79
2023/06/15 11:27:09;;;;;;;;;15.40;14.00;;;;;24.37;42.68;99025.94;5053568;28;8867;-83
2023/06/15 11:29:41;;;;;;;;;13.40;13.40;;;;;24.38;42.32;99019.56;5087110;28;8861;-83
2023/06/15 11:32:11;;;;;;;;;14.60;13.80;;;;;24.36;42.31;99027.78;5086715;28;8850;-82
2023/06/15 11:34:41;;;;;;;;;16.60;16.00;;;;;24.35;42.73;99024.22;5070603;28;8842;-80
2023/06/15 11:37:12;;;;;;;;;18.40;17.80;;;;;24.34;43.46;99016.34;5035315;28;8844;-82
2023/06/15 11:39:44;;;;;;;;;14.40;14.40;;;;;24.34;44.15;99022.56;5036961;28;8940;-81
2023/06/15 11:42:15;;;;;;;;;19.00;19.00;;;;;24.20;43.77;99014.81;5053409;28;8855;-82